Hilltop, North Carolina
Current Conditions -  °F | °C
As of 10:54 AM on Friday 24 Oct 2014 (Local Time) from KGSO Reporting Station
Broken Clouds Broken Clouds  
Wind Chill: 60°   Ceiling: 25000
Heat Index: 60°   Visibility: 10mi
Dew Point: 41°   Wind: 5mph
Humidity: 49%   Direction: 30°NNE
Pressure: 30.06"   Gusts: NA
Location:  36.011°N, 79.8751°W
Report Text: KGSO 241454Z 03004KT 10SM BKN250 16/05 A3006 RMK AO2 SLP177 T01560050 50010
Loading
Personal Weather Stations






























Interactive Weather Map
Tropical Storm Tracking
New forecast layout! Learn more

10-Day Weather Forecast

Advertisements
Track Severe Weather on mobile